sensor_id;sensor_type;location;lat;lon;timestamp;P1;durP1;ratioP1;P2;durP2;ratioP2
67747;SDS011;54543;50.712;6.070;2023-09-19T00:00:30;4.65;;;2.10;;
67747;SDS011;54543;50.712;6.070;2023-09-19T00:02:56;2.42;;;1.70;;
67747;SDS011;54543;50.712;6.070;2023-09-19T00:05:25;3.92;;;1.90;;
67747;SDS011;54543;50.712;6.070;2023-09-19T00:07:53;4.95;;;1.88;;
67747;SDS011;54543;50.712;6.070;2023-09-19T00:10:21;3.30;;;1.60;;
67747;SDS011;54543;50.712;6.070;2023-09-19T00:12:53;6.95;;;2.10;;
67747;SDS011;54543;50.712;6.070;2023-09-19T00:15:24;4.70;;;1.70;;
67747;SDS011;54543;50.712;6.070;2023-09-19T00:17:56;3.80;;;2.00;;
67747;SDS011;54543;50.712;6.070;2023-09-19T00:20:22;4.68;;;1.88;;
67747;SDS011;54543;50.712;6.070;2023-09-19T00:22:52;3.45;;;1.88;;
67747;SDS011;54543;50.712;6.070;2023-09-19T00:25:18;4.35;;;1.70;;
67747;SDS011;54543;50.712;6.070;2023-09-19T00:27:45;4.47;;;1.67;;
67747;SDS011;54543;50.712;6.070;2023-09-19T00:30:17;3.08;;;1.90;;
67747;SDS011;54543;50.712;6.070;2023-09-19T00:32:47;4.38;;;1.58;;
67747;SDS011;54543;50.712;6.070;2023-09-19T00:35:15;2.83;;;1.48;;
67747;SDS011;54543;50.712;6.070;2023-09-19T00:37:42;3.10;;;1.60;;
67747;SDS011;54543;50.712;6.070;2023-09-19T00:40:08;3.85;;;1.42;;
67747;SDS011;54543;50.712;6.070;2023-09-19T00:42:40;4.78;;;1.60;;
67747;SDS011;54543;50.712;6.070;2023-09-19T00:45:07;3.13;;;1.50;;
67747;SDS011;54543;50.712;6.070;2023-09-19T00:47:40;2.65;;;1.15;;
67747;SDS011;54543;50.712;6.070;2023-09-19T00:50:09;4.43;;;1.58;;
67747;SDS011;54543;50.712;6.070;2023-09-19T00:52:39;4.00;;;1.25;;
67747;SDS011;54543;50.712;6.070;2023-09-19T00:55:06;3.05;;;1.38;;
67747;SDS011;54543;50.712;6.070;2023-09-19T00:57:37;5.85;;;1.80;;
67747;SDS011;54543;50.712;6.070;2023-09-19T01:00:04;5.15;;;1.60;;
67747;SDS011;54543;50.712;6.070;2023-09-19T01:02:33;4.80;;;1.55;;
67747;SDS011;54543;50.712;6.070;2023-09-19T01:05:00;3.70;;;1.48;;
67747;SDS011;54543;50.712;6.070;2023-09-19T01:07:27;4.80;;;1.50;;
67747;SDS011;54543;50.712;6.070;2023-09-19T01:09:56;5.72;;;1.67;;
67747;SDS011;54543;50.712;6.070;2023-09-19T01:12:28;3.15;;;1.27;;
67747;SDS011;54543;50.712;6.070;2023-09-19T01:15:03;6.97;;;1.80;;
67747;SDS011;54543;50.712;6.070;2023-09-19T01:17:43;5.97;;;1.67;;
67747;SDS011;54543;50.712;6.070;2023-09-19T01:23:48;5.70;;;1.70;;
67747;SDS011;54543;50.712;6.070;2023-09-19T01:28:51;3.67;;;1.40;;
67747;SDS011;54543;50.712;6.070;2023-09-19T01:31:19;3.47;;;1.75;;
67747;SDS011;54543;50.712;6.070;2023-09-19T01:33:55;8.55;;;2.00;;
67747;SDS011;54543;50.712;6.070;2023-09-19T01:36:32;3.35;;;1.50;;
67747;SDS011;54543;50.712;6.070;2023-09-19T01:39:02;5.80;;;1.50;;
67747;SDS011;54543;50.712;6.070;2023-09-19T01:47:33;4.72;;;1.60;;
67747;SDS011;54543;50.712;6.070;2023-09-19T01:50:18;4.03;;;1.30;;
67747;SDS011;54543;50.712;6.070;2023-09-19T01:52:59;3.47;;;1.23;;
67747;SDS011;54543;50.712;6.070;2023-09-19T01:55:30;4.45;;;1.63;;
67747;SDS011;54543;50.712;6.070;2023-09-19T01:58:16;5.38;;;1.42;;
67747;SDS011;54543;50.712;6.070;2023-09-19T02:00:48;5.15;;;1.63;;
67747;SDS011;54543;50.712;6.070;2023-09-19T02:03:18;6.40;;;1.55;;
67747;SDS011;54543;50.712;6.070;2023-09-19T02:05:50;3.38;;;1.40;;
67747;SDS011;54543;50.712;6.070;2023-09-19T02:08:19;5.18;;;1.40;;
67747;SDS011;54543;50.712;6.070;2023-09-19T02:10:45;4.47;;;1.70;;
67747;SDS011;54543;50.712;6.070;2023-09-19T02:13:17;5.60;;;1.50;;
67747;SDS011;54543;50.712;6.070;2023-09-19T02:15:46;2.63;;;1.50;;
67747;SDS011;54543;50.712;6.070;2023-09-19T02:18:12;4.68;;;1.80;;
67747;SDS011;54543;50.712;6.070;2023-09-19T02:20:39;3.25;;;1.60;;
67747;SDS011;54543;50.712;6.070;2023-09-19T02:23:05;3.53;;;1.63;;
67747;SDS011;54543;50.712;6.070;2023-09-19T02:25:31;5.32;;;1.50;;
67747;SDS011;54543;50.712;6.070;2023-09-19T02:27:57;7.53;;;1.90;;
67747;SDS011;54543;50.712;6.070;2023-09-19T02:30:26;4.50;;;1.48;;
67747;SDS011;54543;50.712;6.070;2023-09-19T02:32:52;5.65;;;1.67;;
67747;SDS011;54543;50.712;6.070;2023-09-19T02:35:18;6.90;;;1.73;;
67747;SDS011;54543;50.712;6.070;2023-09-19T02:37:46;4.95;;;1.73;;
67747;SDS011;54543;50.712;6.070;2023-09-19T02:40:12;5.43;;;1.65;;
67747;SDS011;54543;50.712;6.070;2023-09-19T02:42:44;5.97;;;1.50;;
67747;SDS011;54543;50.712;6.070;2023-09-19T02:45:12;4.78;;;1.80;;
67747;SDS011;54543;50.712;6.070;2023-09-19T02:47:39;4.18;;;1.48;;
67747;SDS011;54543;50.712;6.070;2023-09-19T02:50:05;6.60;;;1.50;;
67747;SDS011;54543;50.712;6.070;2023-09-19T02:52:31;4.07;;;1.75;;
67747;SDS011;54543;50.712;6.070;2023-09-19T02:54:57;4.43;;;1.48;;
67747;SDS011;54543;50.712;6.070;2023-09-19T02:57:22;3.95;;;1.73;;
67747;SDS011;54543;50.712;6.070;2023-09-19T02:59:49;4.65;;;1.67;;
67747;SDS011;54543;50.712;6.070;2023-09-19T03:02:15;6.90;;;1.80;;
67747;SDS011;54543;50.712;6.070;2023-09-19T03:04:41;4.47;;;1.60;;
67747;SDS011;54543;50.712;6.070;2023-09-19T03:07:06;3.75;;;1.50;;
67747;SDS011;54543;50.712;6.070;2023-09-19T03:09:32;6.18;;;1.60;;
67747;SDS011;54543;50.712;6.070;2023-09-19T03:11:58;6.10;;;2.58;;
67747;SDS011;54543;50.712;6.070;2023-09-19T03:14:24;9.43;;;5.43;;
67747;SDS011;54543;50.712;6.070;2023-09-19T03:16:50;6.85;;;2.90;;
67747;SDS011;54543;50.712;6.070;2023-09-19T03:19:17;10.68;;;4.88;;
67747;SDS011;54543;50.712;6.070;2023-09-19T03:21:43;6.18;;;3.90;;
67747;SDS011;54543;50.712;6.070;2023-09-19T03:24:08;7.00;;;2.92;;
67747;SDS011;54543;50.712;6.070;2023-09-19T03:26:34;8.48;;;2.88;;
67747;SDS011;54543;50.712;6.070;2023-09-19T03:29:03;6.78;;;3.05;;
67747;SDS011;54543;50.712;6.070;2023-09-19T03:31:31;5.47;;;2.85;;
67747;SDS011;54543;50.712;6.070;2023-09-19T03:33:57;4.10;;;2.67;;
67747;SDS011;54543;50.712;6.070;2023-09-19T03:36:22;6.30;;;2.45;;
67747;SDS011;54543;50.712;6.070;2023-09-19T03:38:48;4.88;;;2.33;;
67747;SDS011;54543;50.712;6.070;2023-09-19T03:41:14;5.07;;;2.00;;
67747;SDS011;54543;50.712;6.070;2023-09-19T03:43:42;3.47;;;1.60;;
67747;SDS011;54543;50.712;6.070;2023-09-19T03:46:07;6.80;;;2.00;;
67747;SDS011;54543;50.712;6.070;2023-09-19T03:48:33;5.78;;;1.70;;
67747;SDS011;54543;50.712;6.070;2023-09-19T03:50:59;5.95;;;1.90;;
67747;SDS011;54543;50.712;6.070;2023-09-19T03:53:24;6.32;;;1.98;;
67747;SDS011;54543;50.712;6.070;2023-09-19T03:55:50;6.20;;;2.35;;
67747;SDS011;54543;50.712;6.070;2023-09-19T03:58:15;4.97;;;2.45;;
67747;SDS011;54543;50.712;6.070;2023-09-19T04:00:41;6.50;;;2.33;;
67747;SDS011;54543;50.712;6.070;2023-09-19T04:03:07;6.45;;;2.42;;
67747;SDS011;54543;50.712;6.070;2023-09-19T04:05:33;5.00;;;2.42;;
67747;SDS011;54543;50.712;6.070;2023-09-19T04:07:58;3.15;;;1.80;;
67747;SDS011;54543;50.712;6.070;2023-09-19T04:10:24;7.38;;;2.35;;
67747;SDS011;54543;50.712;6.070;2023-09-19T04:12:52;8.52;;;4.10;;
67747;SDS011;54543;50.712;6.070;2023-09-19T04:15:18;11.05;;;5.40;;
67747;SDS011;54543;50.712;6.070;2023-09-19T04:17:44;9.60;;;5.25;;
67747;SDS011;54543;50.712;6.070;2023-09-19T04:20:10;11.20;;;6.03;;
67747;SDS011;54543;50.712;6.070;2023-09-19T04:22:37;9.93;;;4.88;;
67747;SDS011;54543;50.712;6.070;2023-09-19T04:25:04;8.65;;;4.40;;
67747;SDS011;54543;50.712;6.070;2023-09-19T04:27:32;6.85;;;3.22;;
67747;SDS011;54543;50.712;6.070;2023-09-19T04:29:58;7.35;;;3.78;;
67747;SDS011;54543;50.712;6.070;2023-09-19T04:32:26;6.13;;;3.00;;
67747;SDS011;54543;50.712;6.070;2023-09-19T04:34:53;8.65;;;2.83;;
67747;SDS011;54543;50.712;6.070;2023-09-19T04:37:19;7.35;;;2.50;;
67747;SDS011;54543;50.712;6.070;2023-09-19T04:39:44;6.53;;;2.10;;
67747;SDS011;54543;50.712;6.070;2023-09-19T04:42:12;9.85;;;3.40;;
67747;SDS011;54543;50.712;6.070;2023-09-19T04:44:39;5.88;;;2.15;;
67747;SDS011;54543;50.712;6.070;2023-09-19T04:47:05;7.53;;;2.35;;
67747;SDS011;54543;50.712;6.070;2023-09-19T04:49:31;7.95;;;2.60;;
67747;SDS011;54543;50.712;6.070;2023-09-19T04:51:56;5.65;;;2.45;;
67747;SDS011;54543;50.712;6.070;2023-09-19T04:54:22;4.70;;;1.80;;
67747;SDS011;54543;50.712;6.070;2023-09-19T04:56:48;5.85;;;2.08;;
67747;SDS011;54543;50.712;6.070;2023-09-19T04:59:13;7.15;;;1.90;;
67747;SDS011;54543;50.712;6.070;2023-09-19T05:01:40;6.97;;;2.17;;
67747;SDS011;54543;50.712;6.070;2023-09-19T05:04:06;4.97;;;1.70;;
67747;SDS011;54543;50.712;6.070;2023-09-19T05:06:31;4.60;;;2.08;;
67747;SDS011;54543;50.712;6.070;2023-09-19T05:08:58;3.60;;;1.52;;
67747;SDS011;54543;50.712;6.070;2023-09-19T05:11:25;3.85;;;1.60;;
67747;SDS011;54543;50.712;6.070;2023-09-19T05:13:51;7.38;;;2.00;;
67747;SDS011;54543;50.712;6.070;2023-09-19T05:16:17;7.40;;;2.40;;
67747;SDS011;54543;50.712;6.070;2023-09-19T05:18:43;6.63;;;2.63;;
67747;SDS011;54543;50.712;6.070;2023-09-19T05:21:08;9.63;;;2.38;;
67747;SDS011;54543;50.712;6.070;2023-09-19T05:23:34;5.53;;;1.88;;
67747;SDS011;54543;50.712;6.070;2023-09-19T05:26:00;9.93;;;2.70;;
67747;SDS011;54543;50.712;6.070;2023-09-19T05:28:26;6.85;;;2.75;;
67747;SDS011;54543;50.712;6.070;2023-09-19T05:30:52;6.93;;;2.42;;
67747;SDS011;54543;50.712;6.070;2023-09-19T05:33:18;5.68;;;2.50;;
67747;SDS011;54543;50.712;6.070;2023-09-19T05:35:45;9.02;;;3.30;;
67747;SDS011;54543;50.712;6.070;2023-09-19T05:38:12;5.40;;;3.03;;
67747;SDS011;54543;50.712;6.070;2023-09-19T05:40:39;6.80;;;2.85;;
67747;SDS011;54543;50.712;6.070;2023-09-19T05:43:07;9.00;;;3.83;;
67747;SDS011;54543;50.712;6.070;2023-09-19T05:45:36;11.60;;;3.58;;
67747;SDS011;54543;50.712;6.070;2023-09-19T05:48:10;9.00;;;4.57;;
67747;SDS011;54543;50.712;6.070;2023-09-19T05:50:40;6.93;;;3.15;;
67747;SDS011;54543;50.712;6.070;2023-09-19T05:53:06;11.65;;;4.15;;
67747;SDS011;54543;50.712;6.070;2023-09-19T05:55:32;13.55;;;5.55;;
67747;SDS011;54543;50.712;6.070;2023-09-19T05:57:58;8.73;;;4.88;;
67747;SDS011;54543;50.712;6.070;2023-09-19T06:00:24;9.88;;;5.55;;
67747;SDS011;54543;50.712;6.070;2023-09-19T06:02:56;10.98;;;4.68;;
67747;SDS011;54543;50.712;6.070;2023-09-19T06:05:24;8.60;;;3.95;;
67747;SDS011;54543;50.712;6.070;2023-09-19T06:07:53;7.32;;;2.90;;
67747;SDS011;54543;50.712;6.070;2023-09-19T06:10:19;6.10;;;3.20;;
67747;SDS011;54543;50.712;6.070;2023-09-19T06:12:48;9.15;;;3.38;;
67747;SDS011;54543;50.712;6.070;2023-09-19T06:15:14;10.18;;;3.20;;
67747;SDS011;54543;50.712;6.070;2023-09-19T06:17:52;5.30;;;2.58;;
67747;SDS011;54543;50.712;6.070;2023-09-19T06:20:23;7.85;;;2.97;;
67747;SDS011;54543;50.712;6.070;2023-09-19T06:22:49;5.68;;;3.03;;
67747;SDS011;54543;50.712;6.070;2023-09-19T06:25:15;6.93;;;2.55;;
67747;SDS011;54543;50.712;6.070;2023-09-19T06:27:45;11.88;;;4.93;;
67747;SDS011;54543;50.712;6.070;2023-09-19T06:30:11;5.80;;;2.83;;
67747;SDS011;54543;50.712;6.070;2023-09-19T06:32:37;6.25;;;2.75;;
67747;SDS011;54543;50.712;6.070;2023-09-19T06:35:03;13.02;;;3.45;;
67747;SDS011;54543;50.712;6.070;2023-09-19T06:37:32;7.93;;;3.28;;
67747;SDS011;54543;50.712;6.070;2023-09-19T06:39:59;9.75;;;2.90;;
67747;SDS011;54543;50.712;6.070;2023-09-19T06:42:25;6.13;;;2.80;;
67747;SDS011;54543;50.712;6.070;2023-09-19T06:44:50;5.93;;;2.45;;
67747;SDS011;54543;50.712;6.070;2023-09-19T06:47:16;5.45;;;2.47;;
67747;SDS011;54543;50.712;6.070;2023-09-19T06:49:42;10.70;;;2.72;;
67747;SDS011;54543;50.712;6.070;2023-09-19T06:52:11;9.30;;;4.40;;
67747;SDS011;54543;50.712;6.070;2023-09-19T06:54:36;15.77;;;6.97;;
67747;SDS011;54543;50.712;6.070;2023-09-19T06:57:02;9.65;;;4.55;;
67747;SDS011;54543;50.712;6.070;2023-09-19T06:59:28;8.10;;;4.88;;
67747;SDS011;54543;50.712;6.070;2023-09-19T07:01:54;7.82;;;3.88;;
67747;SDS011;54543;50.712;6.070;2023-09-19T07:04:20;7.07;;;3.58;;
67747;SDS011;54543;50.712;6.070;2023-09-19T07:06:51;6.78;;;3.33;;
67747;SDS011;54543;50.712;6.070;2023-09-19T07:09:18;7.15;;;4.03;;
67747;SDS011;54543;50.712;6.070;2023-09-19T07:11:47;5.40;;;2.90;;
67747;SDS011;54543;50.712;6.070;2023-09-19T07:14:13;6.38;;;2.45;;
67747;SDS011;54543;50.712;6.070;2023-09-19T07:16:39;6.93;;;3.25;;
67747;SDS011;54543;50.712;6.070;2023-09-19T07:19:07;7.32;;;2.90;;
67747;SDS011;54543;50.712;6.070;2023-09-19T07:21:34;4.05;;;2.30;;
67747;SDS011;54543;50.712;6.070;2023-09-19T07:24:04;7.68;;;3.72;;
67747;SDS011;54543;50.712;6.070;2023-09-19T07:26:30;7.63;;;3.70;;
67747;SDS011;54543;50.712;6.070;2023-09-19T07:28:56;6.88;;;3.20;;
67747;SDS011;54543;50.712;6.070;2023-09-19T07:31:22;4.75;;;2.65;;
67747;SDS011;54543;50.712;6.070;2023-09-19T07:33:49;5.53;;;2.75;;
67747;SDS011;54543;50.712;6.070;2023-09-19T07:36:14;5.57;;;3.08;;
67747;SDS011;54543;50.712;6.070;2023-09-19T07:38:41;6.47;;;2.88;;
67747;SDS011;54543;50.712;6.070;2023-09-19T07:41:07;6.28;;;2.53;;
67747;SDS011;54543;50.712;6.070;2023-09-19T07:43:36;4.93;;;2.25;;
67747;SDS011;54543;50.712;6.070;2023-09-19T07:46:04;7.97;;;2.50;;
67747;SDS011;54543;50.712;6.070;2023-09-19T07:48:32;4.70;;;2.00;;
67747;SDS011;54543;50.712;6.070;2023-09-19T07:51:03;7.70;;;2.08;;
67747;SDS011;54543;50.712;6.070;2023-09-19T07:53:31;5.80;;;2.53;;
67747;SDS011;54543;50.712;6.070;2023-09-19T07:56:03;10.40;;;2.92;;
67747;SDS011;54543;50.712;6.070;2023-09-19T07:58:30;6.15;;;2.22;;
67747;SDS011;54543;50.712;6.070;2023-09-19T08:00:56;7.25;;;2.30;;
67747;SDS011;54543;50.712;6.070;2023-09-19T08:03:27;4.88;;;2.20;;
67747;SDS011;54543;50.712;6.070;2023-09-19T08:05:52;3.28;;;2.10;;
67747;SDS011;54543;50.712;6.070;2023-09-19T08:08:18;5.40;;;2.15;;
67747;SDS011;54543;50.712;6.070;2023-09-19T08:10:45;4.28;;;2.00;;
67747;SDS011;54543;50.712;6.070;2023-09-19T08:13:14;4.75;;;1.90;;
67747;SDS011;54543;50.712;6.070;2023-09-19T08:15:44;6.18;;;2.20;;
67747;SDS011;54543;50.712;6.070;2023-09-19T08:18:10;6.32;;;2.40;;
67747;SDS011;54543;50.712;6.070;2023-09-19T08:20:38;6.38;;;2.40;;
67747;SDS011;54543;50.712;6.070;2023-09-19T08:23:03;6.07;;;2.42;;
67747;SDS011;54543;50.712;6.070;2023-09-19T08:25:29;6.35;;;2.00;;
67747;SDS011;54543;50.712;6.070;2023-09-19T08:27:55;8.50;;;2.53;;
67747;SDS011;54543;50.712;6.070;2023-09-19T08:30:23;3.83;;;1.80;;
67747;SDS011;54543;50.712;6.070;2023-09-19T08:32:49;5.65;;;2.47;;
67747;SDS011;54543;50.712;6.070;2023-09-19T08:35:15;4.75;;;1.85;;
67747;SDS011;54543;50.712;6.070;2023-09-19T08:37:44;6.35;;;2.05;;
67747;SDS011;54543;50.712;6.070;2023-09-19T08:40:13;8.05;;;3.05;;
67747;SDS011;54543;50.712;6.070;2023-09-19T08:42:55;3.90;;;1.92;;
67747;SDS011;54543;50.712;6.070;2023-09-19T08:45:22;4.97;;;1.70;;
67747;SDS011;54543;50.712;6.070;2023-09-19T08:51:03;7.63;;;3.15;;
67747;SDS011;54543;50.712;6.070;2023-09-19T08:53:42;6.43;;;2.22;;
67747;SDS011;54543;50.712;6.070;2023-09-19T08:56:16;5.65;;;2.72;;
67747;SDS011;54543;50.712;6.070;2023-09-19T08:58:48;6.53;;;2.20;;
67747;SDS011;54543;50.712;6.070;2023-09-19T09:01:27;4.45;;;2.15;;
67747;SDS011;54543;50.712;6.070;2023-09-19T09:03:54;5.63;;;2.45;;
67747;SDS011;54543;50.712;6.070;2023-09-19T09:06:21;4.80;;;2.10;;
67747;SDS011;54543;50.712;6.070;2023-09-19T09:08:48;8.32;;;2.60;;
67747;SDS011;54543;50.712;6.070;2023-09-19T09:11:15;5.13;;;2.05;;
67747;SDS011;54543;50.712;6.070;2023-09-19T09:13:45;4.63;;;1.98;;
67747;SDS011;54543;50.712;6.070;2023-09-19T09:16:12;4.40;;;1.75;;
67747;SDS011;54543;50.712;6.070;2023-09-19T09:18:39;3.67;;;1.75;;
67747;SDS011;54543;50.712;6.070;2023-09-19T09:21:05;4.85;;;2.42;;
67747;SDS011;54543;50.712;6.070;2023-09-19T09:23:31;5.80;;;1.83;;
67747;SDS011;54543;50.712;6.070;2023-09-19T09:25:58;4.93;;;1.80;;
67747;SDS011;54543;50.712;6.070;2023-09-19T09:28:28;3.88;;;1.95;;
67747;SDS011;54543;50.712;6.070;2023-09-19T09:30:55;4.53;;;1.73;;
67747;SDS011;54543;50.712;6.070;2023-09-19T09:33:23;5.32;;;2.10;;
67747;SDS011;54543;50.712;6.070;2023-09-19T09:38:25;5.43;;;2.08;;
67747;SDS011;54543;50.712;6.070;2023-09-19T09:40:57;5.65;;;2.70;;
67747;SDS011;54543;50.712;6.070;2023-09-19T09:46:07;4.83;;;2.13;;
67747;SDS011;54543;50.712;6.070;2023-09-19T09:54:34;4.07;;;1.60;;
67747;SDS011;54543;50.712;6.070;2023-09-19T09:59:45;6.88;;;2.42;;
67747;SDS011;54543;50.712;6.070;2023-09-19T10:02:43;5.03;;;1.80;;
67747;SDS011;54543;50.712;6.070;2023-09-19T10:05:18;4.35;;;2.17;;
67747;SDS011;54543;50.712;6.070;2023-09-19T10:07:54;5.07;;;1.98;;
67747;SDS011;54543;50.712;6.070;2023-09-19T10:13:11;5.90;;;1.90;;
67747;SDS011;54543;50.712;6.070;2023-09-19T10:15:40;4.90;;;2.10;;
67747;SDS011;54543;50.712;6.070;2023-09-19T10:18:16;4.50;;;2.20;;
67747;SDS011;54543;50.712;6.070;2023-09-19T10:20:46;6.65;;;1.80;;
67747;SDS011;54543;50.712;6.070;2023-09-19T10:23:15;6.53;;;2.03;;
67747;SDS011;54543;50.712;6.070;2023-09-19T10:25:47;6.38;;;2.08;;
67747;SDS011;54543;50.712;6.070;2023-09-19T10:28:14;5.03;;;1.88;;
67747;SDS011;54543;50.712;6.070;2023-09-19T10:30:42;2.63;;;1.48;;
67747;SDS011;54543;50.712;6.070;2023-09-19T10:33:13;3.40;;;1.70;;
67747;SDS011;54543;50.712;6.070;2023-09-19T10:35:44;4.63;;;1.75;;
67747;SDS011;54543;50.712;6.070;2023-09-19T10:38:11;4.50;;;1.85;;
67747;SDS011;54543;50.712;6.070;2023-09-19T10:40:44;4.05;;;1.50;;
67747;SDS011;54543;50.712;6.070;2023-09-19T10:43:15;4.75;;;1.80;;
67747;SDS011;54543;50.712;6.070;2023-09-19T10:45:46;4.43;;;1.70;;
67747;SDS011;54543;50.712;6.070;2023-09-19T10:48:15;5.13;;;2.13;;
67747;SDS011;54543;50.712;6.070;2023-09-19T10:53:50;6.38;;;1.63;;
67747;SDS011;54543;50.712;6.070;2023-09-19T10:56:21;6.63;;;2.15;;
67747;SDS011;54543;50.712;6.070;2023-09-19T10:59:04;2.72;;;1.38;;
67747;SDS011;54543;50.712;6.070;2023-09-19T11:01:48;6.50;;;1.48;;
67747;SDS011;54543;50.712;6.070;2023-09-19T11:07:04;4.15;;;1.40;;
67747;SDS011;54543;50.712;6.070;2023-09-19T11:09:49;3.00;;;1.30;;
67747;SDS011;54543;50.712;6.070;2023-09-19T11:14:54;4.20;;;1.70;;
67747;SDS011;54543;50.712;6.070;2023-09-19T11:30:31;4.25;;;1.63;;
67747;SDS011;54543;50.712;6.070;2023-09-19T11:36:03;3.45;;;1.65;;
67747;SDS011;54543;50.712;6.070;2023-09-19T11:43:47;5.43;;;1.70;;
67747;SDS011;54543;50.712;6.070;2023-09-19T11:46:13;2.13;;;1.15;;
67747;SDS011;54543;50.712;6.070;2023-09-19T11:48:47;5.18;;;1.52;;
67747;SDS011;54543;50.712;6.070;2023-09-19T11:51:15;3.92;;;1.48;;
67747;SDS011;54543;50.712;6.070;2023-09-19T11:53:52;3.55;;;1.50;;
67747;SDS011;54543;50.712;6.070;2023-09-19T11:56:25;3.60;;;1.20;;
67747;SDS011;54543;50.712;6.070;2023-09-19T11:58:53;4.97;;;1.30;;
67747;SDS011;54543;50.712;6.070;2023-09-19T12:01:26;3.33;;;1.55;;
67747;SDS011;54543;50.712;6.070;2023-09-19T12:03:55;3.75;;;1.45;;
67747;SDS011;54543;50.712;6.070;2023-09-19T12:06:23;3.20;;;1.40;;
67747;SDS011;54543;50.712;6.070;2023-09-19T12:08:50;4.88;;;1.35;;
67747;SDS011;54543;50.712;6.070;2023-09-19T12:11:19;3.38;;;1.45;;
67747;SDS011;54543;50.712;6.070;2023-09-19T12:13:48;3.47;;;1.40;;
67747;SDS011;54543;50.712;6.070;2023-09-19T12:16:20;3.40;;;1.23;;
67747;SDS011;54543;50.712;6.070;2023-09-19T12:18:49;2.58;;;1.02;;
67747;SDS011;54543;50.712;6.070;2023-09-19T12:21:22;4.15;;;1.60;;
67747;SDS011;54543;50.712;6.070;2023-09-19T12:23:59;2.88;;;1.30;;
67747;SDS011;54543;50.712;6.070;2023-09-19T12:26:41;3.28;;;1.40;;
67747;SDS011;54543;50.712;6.070;2023-09-19T12:29:11;4.82;;;1.50;;
67747;SDS011;54543;50.712;6.070;2023-09-19T12:31:46;2.70;;;1.20;;
67747;SDS011;54543;50.712;6.070;2023-09-19T12:34:17;3.58;;;1.23;;
67747;SDS011;54543;50.712;6.070;2023-09-19T12:36:48;3.65;;;1.27;;
67747;SDS011;54543;50.712;6.070;2023-09-19T12:39:23;3.55;;;1.55;;
67747;SDS011;54543;50.712;6.070;2023-09-19T12:41:51;3.63;;;1.33;;
67747;SDS011;54543;50.712;6.070;2023-09-19T12:44:19;4.45;;;1.40;;
67747;SDS011;54543;50.712;6.070;2023-09-19T12:46:45;4.07;;;1.13;;
67747;SDS011;54543;50.712;6.070;2023-09-19T12:49:17;3.08;;;1.33;;
67747;SDS011;54543;50.712;6.070;2023-09-19T12:51:45;4.63;;;1.75;;
67747;SDS011;54543;50.712;6.070;2023-09-19T12:54:12;3.50;;;1.25;;
67747;SDS011;54543;50.712;6.070;2023-09-19T12:56:41;5.53;;;1.30;;
67747;SDS011;54543;50.712;6.070;2023-09-19T12:59:11;4.65;;;1.00;;
67747;SDS011;54543;50.712;6.070;2023-09-19T13:01:38;2.30;;;1.10;;
67747;SDS011;54543;50.712;6.070;2023-09-19T13:04:18;2.83;;;1.10;;
67747;SDS011;54543;50.712;6.070;2023-09-19T13:06:50;3.20;;;1.30;;
67747;SDS011;54543;50.712;6.070;2023-09-19T13:09:17;3.53;;;1.20;;
67747;SDS011;54543;50.712;6.070;2023-09-19T13:11:47;2.60;;;1.10;;
67747;SDS011;54543;50.712;6.070;2023-09-19T13:14:22;2.90;;;1.38;;
67747;SDS011;54543;50.712;6.070;2023-09-19T13:17:08;4.20;;;1.27;;
67747;SDS011;54543;50.712;6.070;2023-09-19T13:19:48;3.22;;;1.30;;
67747;SDS011;54543;50.712;6.070;2023-09-19T13:25:05;4.07;;;1.20;;
67747;SDS011;54543;50.712;6.070;2023-09-19T13:27:39;3.13;;;1.05;;
67747;SDS011;54543;50.712;6.070;2023-09-19T13:30:06;1.85;;;0.88;;
67747;SDS011;54543;50.712;6.070;2023-09-19T13:32:32;2.80;;;1.20;;
67747;SDS011;54543;50.712;6.070;2023-09-19T13:34:58;3.40;;;1.10;;
67747;SDS011;54543;50.712;6.070;2023-09-19T13:37:24;1.88;;;0.95;;
67747;SDS011;54543;50.712;6.070;2023-09-19T13:39:51;1.60;;;0.70;;
67747;SDS011;54543;50.712;6.070;2023-09-19T13:42:19;3.15;;;1.27;;
67747;SDS011;54543;50.712;6.070;2023-09-19T13:44:46;2.45;;;0.80;;
67747;SDS011;54543;50.712;6.070;2023-09-19T13:47:12;2.72;;;0.90;;
67747;SDS011;54543;50.712;6.070;2023-09-19T13:49:38;2.17;;;0.80;;
67747;SDS011;54543;50.712;6.070;2023-09-19T13:52:04;2.45;;;1.10;;
67747;SDS011;54543;50.712;6.070;2023-09-19T13:54:30;2.60;;;1.00;;
67747;SDS011;54543;50.712;6.070;2023-09-19T13:56:56;3.03;;;0.90;;
67747;SDS011;54543;50.712;6.070;2023-09-19T13:59:22;1.95;;;0.90;;
67747;SDS011;54543;50.712;6.070;2023-09-19T14:01:49;2.30;;;0.82;;
67747;SDS011;54543;50.712;6.070;2023-09-19T14:04:15;3.42;;;1.23;;
67747;SDS011;54543;50.712;6.070;2023-09-19T14:06:42;2.47;;;0.98;;
67747;SDS011;54543;50.712;6.070;2023-09-19T14:09:08;1.90;;;0.70;;
67747;SDS011;54543;50.712;6.070;2023-09-19T14:11:35;4.63;;;0.90;;
67747;SDS011;54543;50.712;6.070;2023-09-19T14:14:01;1.95;;;0.75;;
67747;SDS011;54543;50.712;6.070;2023-09-19T14:16:27;1.90;;;1.00;;
67747;SDS011;54543;50.712;6.070;2023-09-19T14:18:56;3.78;;;1.30;;
67747;SDS011;54543;50.712;6.070;2023-09-19T14:21:23;2.55;;;1.02;;
67747;SDS011;54543;50.712;6.070;2023-09-19T14:23:48;1.85;;;1.00;;
67747;SDS011;54543;50.712;6.070;2023-09-19T14:26:14;1.55;;;0.85;;
67747;SDS011;54543;50.712;6.070;2023-09-19T14:28:42;2.40;;;0.77;;
67747;SDS011;54543;50.712;6.070;2023-09-19T14:31:08;3.65;;;1.15;;
67747;SDS011;54543;50.712;6.070;2023-09-19T14:33:35;2.75;;;1.05;;
67747;SDS011;54543;50.712;6.070;2023-09-19T14:36:04;1.25;;;0.70;;
67747;SDS011;54543;50.712;6.070;2023-09-19T14:38:35;2.08;;;0.70;;
67747;SDS011;54543;50.712;6.070;2023-09-19T14:41:02;2.10;;;0.77;;
67747;SDS011;54543;50.712;6.070;2023-09-19T14:43:29;1.77;;;0.95;;
67747;SDS011;54543;50.712;6.070;2023-09-19T14:46:05;2.00;;;1.05;;
67747;SDS011;54543;50.712;6.070;2023-09-19T14:48:35;2.20;;;0.80;;
67747;SDS011;54543;50.712;6.070;2023-09-19T14:51:04;1.88;;;0.82;;
67747;SDS011;54543;50.712;6.070;2023-09-19T14:53:32;2.80;;;1.00;;
67747;SDS011;54543;50.712;6.070;2023-09-19T14:56:01;2.58;;;0.90;;
67747;SDS011;54543;50.712;6.070;2023-09-19T14:58:33;2.10;;;0.90;;
67747;SDS011;54543;50.712;6.070;2023-09-19T15:01:03;3.72;;;1.00;;
67747;SDS011;54543;50.712;6.070;2023-09-19T15:03:31;4.03;;;1.20;;
67747;SDS011;54543;50.712;6.070;2023-09-19T15:06:01;1.23;;;0.80;;
67747;SDS011;54543;50.712;6.070;2023-09-19T15:08:31;1.25;;;0.70;;
67747;SDS011;54543;50.712;6.070;2023-09-19T15:10:59;2.63;;;0.95;;
67747;SDS011;54543;50.712;6.070;2023-09-19T15:13:29;1.77;;;0.77;;
67747;SDS011;54543;50.712;6.070;2023-09-19T15:15:58;3.25;;;1.95;;
67747;SDS011;54543;50.712;6.070;2023-09-19T15:18:28;9.82;;;2.55;;
67747;SDS011;54543;50.712;6.070;2023-09-19T15:21:02;3.53;;;1.85;;
67747;SDS011;54543;50.712;6.070;2023-09-19T15:23:29;8.50;;;4.70;;
67747;SDS011;54543;50.712;6.070;2023-09-19T15:25:56;10.15;;;5.18;;
67747;SDS011;54543;50.712;6.070;2023-09-19T15:28:22;5.90;;;2.92;;
67747;SDS011;54543;50.712;6.070;2023-09-19T15:30:48;3.83;;;2.17;;
67747;SDS011;54543;50.712;6.070;2023-09-19T15:33:22;4.57;;;2.55;;
67747;SDS011;54543;50.712;6.070;2023-09-19T15:35:47;4.95;;;2.03;;
67747;SDS011;54543;50.712;6.070;2023-09-19T15:38:13;7.25;;;3.88;;
67747;SDS011;54543;50.712;6.070;2023-09-19T15:40:45;10.43;;;5.10;;
67747;SDS011;54543;50.712;6.070;2023-09-19T15:43:12;7.85;;;4.05;;
67747;SDS011;54543;50.712;6.070;2023-09-19T15:45:37;5.90;;;2.38;;
67747;SDS011;54543;50.712;6.070;2023-09-19T15:48:03;6.68;;;2.80;;
67747;SDS011;54543;50.712;6.070;2023-09-19T15:50:30;7.95;;;3.65;;
67747;SDS011;54543;50.712;6.070;2023-09-19T15:52:55;10.65;;;4.55;;
67747;SDS011;54543;50.712;6.070;2023-09-19T15:55:21;13.70;;;4.55;;
67747;SDS011;54543;50.712;6.070;2023-09-19T15:57:47;12.88;;;6.15;;
67747;SDS011;54543;50.712;6.070;2023-09-19T16:00:13;12.85;;;4.90;;